sensor_id;sensor_type;location;lat;lon;timestamp;pressure;altitude;pressure_sealevel;temperature;humidity
62791;BME280;48830;53.426;10.300;2023-01-25T00:00:39;103816.38;;;0.83;100.00
62791;BME280;48830;53.426;10.300;2023-01-25T00:03:04;103818.56;;;0.79;100.00
62791;BME280;48830;53.426;10.300;2023-01-25T00:05:30;103815.00;;;0.77;100.00
62791;BME280;48830;53.426;10.300;2023-01-25T00:07:55;103808.13;;;0.76;100.00
62791;BME280;48830;53.426;10.300;2023-01-25T00:10:22;103804.53;;;0.74;100.00
62791;BME280;48830;53.426;10.300;2023-01-25T00:12:47;103808.44;;;0.79;100.00
62791;BME280;48830;53.426;10.300;2023-01-25T00:15:13;103803.59;;;0.65;100.00
62791;BME280;48830;53.426;10.300;2023-01-25T00:17:39;103796.03;;;0.74;100.00
62791;BME280;48830;53.426;10.300;2023-01-25T00:20:05;103790.16;;;0.82;100.00
62791;BME280;48830;53.426;10.300;2023-01-25T00:22:30;103786.94;;;0.67;100.00
62791;BME280;48830;53.426;10.300;2023-01-25T00:24:56;103782.69;;;0.59;100.00
62791;BME280;48830;53.426;10.300;2023-01-25T00:27:21;103781.97;;;0.60;100.00
62791;BME280;48830;53.426;10.300;2023-01-25T00:29:47;103785.69;;;0.64;100.00
62791;BME280;48830;53.426;10.300;2023-01-25T00:34:47;103782.19;;;0.70;100.00
62791;BME280;48830;53.426;10.300;2023-01-25T00:37:36;103783.03;;;0.62;100.00
62791;BME280;48830;53.426;10.300;2023-01-25T00:40:03;103775.69;;;0.57;100.00
62791;BME280;48830;53.426;10.300;2023-01-25T00:42:29;103771.59;;;0.66;100.00
62791;BME280;48830;53.426;10.300;2023-01-25T00:44:54;103765.78;;;0.67;100.00
62791;BME280;48830;53.426;10.300;2023-01-25T00:47:20;103771.66;;;0.59;100.00
62791;BME280;48830;53.426;10.300;2023-01-25T00:49:45;103773.75;;;0.54;100.00
62791;BME280;48830;53.426;10.300;2023-01-25T00:52:11;103763.94;;;0.57;100.00
62791;BME280;48830;53.426;10.300;2023-01-25T00:54:37;103771.44;;;0.48;100.00
62791;BME280;48830;53.426;10.300;2023-01-25T00:57:03;103758.56;;;0.54;100.00
62791;BME280;48830;53.426;10.300;2023-01-25T00:59:28;103759.13;;;0.51;100.00
62791;BME280;48830;53.426;10.300;2023-01-25T01:01:54;103759.41;;;0.46;100.00
62791;BME280;48830;53.426;10.300;2023-01-25T01:04:20;103744.81;;;0.43;100.00
62791;BME280;48830;53.426;10.300;2023-01-25T01:06:49;103746.88;;;0.47;100.00
62791;BME280;48830;53.426;10.300;2023-01-25T01:09:16;103738.38;;;0.38;100.00
62791;BME280;48830;53.426;10.300;2023-01-25T01:11:42;103740.31;;;0.41;100.00
62791;BME280;48830;53.426;10.300;2023-01-25T01:14:08;103745.06;;;0.38;100.00
62791;BME280;48830;53.426;10.300;2023-01-25T01:16:34;103743.63;;;0.24;100.00
62791;BME280;48830;53.426;10.300;2023-01-25T01:19:00;103748.94;;;0.18;100.00
62791;BME280;48830;53.426;10.300;2023-01-25T01:21:25;103747.38;;;0.28;100.00
62791;BME280;48830;53.426;10.300;2023-01-25T01:23:53;103741.47;;;0.36;100.00
62791;BME280;48830;53.426;10.300;2023-01-25T01:26:18;103742.69;;;0.39;100.00
62791;BME280;48830;53.426;10.300;2023-01-25T01:28:44;103739.25;;;0.39;100.00
62791;BME280;48830;53.426;10.300;2023-01-25T01:31:15;103748.63;;;0.40;100.00
62791;BME280;48830;53.426;10.300;2023-01-25T01:33:51;103745.88;;;0.30;100.00
62791;BME280;48830;53.426;10.300;2023-01-25T01:36:19;103748.75;;;0.33;100.00
62791;BME280;48830;53.426;10.300;2023-01-25T01:38:46;103749.19;;;0.37;100.00
62791;BME280;48830;53.426;10.300;2023-01-25T01:41:12;103750.94;;;0.30;100.00
62791;BME280;48830;53.426;10.300;2023-01-25T01:43:38;103745.88;;;0.30;100.00
62791;BME280;48830;53.426;10.300;2023-01-25T01:46:19;103747.03;;;0.24;100.00
62791;BME280;48830;53.426;10.300;2023-01-25T01:48:50;103739.97;;;0.13;100.00
62791;BME280;48830;53.426;10.300;2023-01-25T01:54:06;103734.81;;;0.20;100.00
62791;BME280;48830;53.426;10.300;2023-01-25T01:59:14;103737.56;;;0.31;100.00
62791;BME280;48830;53.426;10.300;2023-01-25T02:01:40;103739.31;;;0.23;100.00
62791;BME280;48830;53.426;10.300;2023-01-25T02:04:06;103736.38;;;0.11;100.00
62791;BME280;48830;53.426;10.300;2023-01-25T02:07:03;103741.00;;;0.15;100.00
62791;BME280;48830;53.426;10.300;2023-01-25T02:09:33;103735.88;;;0.22;100.00
62791;BME280;48830;53.426;10.300;2023-01-25T02:12:00;103724.53;;;0.19;100.00
62791;BME280;48830;53.426;10.300;2023-01-25T02:14:29;103718.16;;;0.22;100.00
62791;BME280;48830;53.426;10.300;2023-01-25T02:16:56;103719.38;;;0.26;100.00
62791;BME280;48830;53.426;10.300;2023-01-25T02:21:55;103712.78;;;0.19;100.00
62791;BME280;48830;53.426;10.300;2023-01-25T02:24:29;103710.13;;;0.26;100.00
62791;BME280;48830;53.426;10.300;2023-01-25T02:26:56;103705.53;;;0.22;100.00
62791;BME280;48830;53.426;10.300;2023-01-25T02:29:23;103709.94;;;0.16;100.00
62791;BME280;48830;53.426;10.300;2023-01-25T02:31:58;103697.38;;;0.09;100.00
62791;BME280;48830;53.426;10.300;2023-01-25T02:34:26;103693.31;;;0.03;100.00
62791;BME280;48830;53.426;10.300;2023-01-25T02:36:52;103701.06;;;0.04;100.00
62791;BME280;48830;53.426;10.300;2023-01-25T02:39:17;103702.59;;;0.11;100.00
62791;BME280;48830;53.426;10.300;2023-01-25T02:41:45;103704.47;;;0.05;100.00
62791;BME280;48830;53.426;10.300;2023-01-25T02:46:47;103698.81;;;-0.17;100.00
62791;BME280;48830;53.426;10.300;2023-01-25T02:49:14;103702.22;;;-0.01;100.00
62791;BME280;48830;53.426;10.300;2023-01-25T02:51:43;103701.06;;;0.04;100.00
62791;BME280;48830;53.426;10.300;2023-01-25T02:54:11;103696.19;;;0.06;100.00
62791;BME280;48830;53.426;10.300;2023-01-25T02:56:37;103691.56;;;0.10;100.00
62791;BME280;48830;53.426;10.300;2023-01-25T02:59:05;103684.44;;;0.06;100.00
62791;BME280;48830;53.426;10.300;2023-01-25T03:01:34;103688.84;;;0.00;100.00
62791;BME280;48830;53.426;10.300;2023-01-25T03:04:01;103684.69;;;0.01;100.00
62791;BME280;48830;53.426;10.300;2023-01-25T03:06:26;103678.91;;;-0.14;100.00
62791;BME280;48830;53.426;10.300;2023-01-25T03:08:52;103673.22;;;-0.20;100.00
62791;BME280;48830;53.426;10.300;2023-01-25T03:11:19;103665.66;;;-0.20;100.00
62791;BME280;48830;53.426;10.300;2023-01-25T03:13:45;103666.59;;;-0.27;100.00
62791;BME280;48830;53.426;10.300;2023-01-25T03:16:11;103663.75;;;-0.14;100.00
62791;BME280;48830;53.426;10.300;2023-01-25T03:18:39;103667.66;;;-0.09;100.00
62791;BME280;48830;53.426;10.300;2023-01-25T03:23:32;103647.84;;;-0.13;100.00
62791;BME280;48830;53.426;10.300;2023-01-25T03:26:25;103650.03;;;-0.16;100.00
62791;BME280;48830;53.426;10.300;2023-01-25T03:29:15;103643.94;;;-0.18;100.00
62791;BME280;48830;53.426;10.300;2023-01-25T03:31:42;103641.31;;;-0.11;100.00
62791;BME280;48830;53.426;10.300;2023-01-25T03:34:08;103632.56;;;-0.06;100.00
62791;BME280;48830;53.426;10.300;2023-01-25T03:36:37;103636.16;;;-0.04;100.00
62791;BME280;48830;53.426;10.300;2023-01-25T03:39:03;103632.19;;;-0.18;100.00
62791;BME280;48830;53.426;10.300;2023-01-25T03:41:28;103637.88;;;-0.12;100.00
62791;BME280;48830;53.426;10.300;2023-01-25T03:43:57;103635.84;;;-0.07;100.00
62791;BME280;48830;53.426;10.300;2023-01-25T03:46:22;103632.75;;;-0.05;100.00
62791;BME280;48830;53.426;10.300;2023-01-25T03:48:48;103636.91;;;-0.05;100.00
62791;BME280;48830;53.426;10.300;2023-01-25T03:51:14;103628.09;;;-0.09;100.00
62791;BME280;48830;53.426;10.300;2023-01-25T03:53:39;103634.97;;;-0.23;100.00
62791;BME280;48830;53.426;10.300;2023-01-25T03:56:10;103629.81;;;-0.16;100.00
62791;BME280;48830;53.426;10.300;2023-01-25T03:58:38;103633.94;;;-0.25;100.00
62791;BME280;48830;53.426;10.300;2023-01-25T04:01:07;103643.31;;;-0.24;100.00
62791;BME280;48830;53.426;10.300;2023-01-25T04:03:33;103642.03;;;-0.12;100.00
62791;BME280;48830;53.426;10.300;2023-01-25T04:05:59;103632.81;;;-0.12;100.00
62791;BME280;48830;53.426;10.300;2023-01-25T04:08:27;103635.78;;;-0.16;100.00
62791;BME280;48830;53.426;10.300;2023-01-25T04:10:55;103625.94;;;-0.21;100.00
62791;BME280;48830;53.426;10.300;2023-01-25T04:13:22;103625.00;;;-0.22;100.00
62791;BME280;48830;53.426;10.300;2023-01-25T04:15:49;103620.88;;;-0.21;100.00
62791;BME280;48830;53.426;10.300;2023-01-25T04:18:26;103621.28;;;-0.25;100.00
62791;BME280;48830;53.426;10.300;2023-01-25T04:20:53;103617.28;;;-0.23;100.00
62791;BME280;48830;53.426;10.300;2023-01-25T04:23:19;103608.25;;;-0.21;100.00
62791;BME280;48830;53.426;10.300;2023-01-25T04:26:02;103610.34;;;-0.17;100.00
62791;BME280;48830;53.426;10.300;2023-01-25T04:28:30;103604.66;;;-0.23;100.00
62791;BME280;48830;53.426;10.300;2023-01-25T04:30:57;103604.13;;;-0.12;100.00
62791;BME280;48830;53.426;10.300;2023-01-25T04:33:26;103599.97;;;-0.12;100.00
62791;BME280;48830;53.426;10.300;2023-01-25T04:35:51;103602.56;;;-0.03;100.00
62791;BME280;48830;53.426;10.300;2023-01-25T04:38:17;103598.38;;;-0.03;100.00
62791;BME280;48830;53.426;10.300;2023-01-25T04:40:43;103595.09;;;-0.10;100.00
62791;BME280;48830;53.426;10.300;2023-01-25T04:43:12;103585.28;;;-0.07;100.00
62791;BME280;48830;53.426;10.300;2023-01-25T04:45:38;103594.63;;;-0.06;100.00
62791;BME280;48830;53.426;10.300;2023-01-25T04:48:11;103585.69;;;-0.11;100.00
62791;BME280;48830;53.426;10.300;2023-01-25T04:50:44;103579.03;;;-0.11;100.00
62791;BME280;48830;53.426;10.300;2023-01-25T04:53:10;103575.16;;;-0.07;100.00
62791;BME280;48830;53.426;10.300;2023-01-25T04:55:37;103577.53;;;-0.09;100.00
62791;BME280;48830;53.426;10.300;2023-01-25T04:58:02;103575.13;;;-0.16;100.00
62791;BME280;48830;53.426;10.300;2023-01-25T05:00:29;103574.59;;;-0.05;100.00
62791;BME280;48830;53.426;10.300;2023-01-25T05:02:58;103573.84;;;-0.04;100.00
62791;BME280;48830;53.426;10.300;2023-01-25T05:05:23;103572.78;;;-0.06;100.00
62791;BME280;48830;53.426;10.300;2023-01-25T05:07:51;103574.00;;;-0.02;100.00
62791;BME280;48830;53.426;10.300;2023-01-25T05:10:17;103568.66;;;0.04;100.00
62791;BME280;48830;53.426;10.300;2023-01-25T05:13:03;103570.25;;;-0.06;100.00
62791;BME280;48830;53.426;10.300;2023-01-25T05:15:30;103566.81;;;-0.06;100.00
62791;BME280;48830;53.426;10.300;2023-01-25T05:17:55;103559.84;;;-0.09;100.00
62791;BME280;48830;53.426;10.300;2023-01-25T05:20:21;103565.94;;;-0.07;100.00
62791;BME280;48830;53.426;10.300;2023-01-25T05:22:46;103564.75;;;-0.10;100.00
62791;BME280;48830;53.426;10.300;2023-01-25T05:25:13;103563.16;;;-0.25;100.00
62791;BME280;48830;53.426;10.300;2023-01-25T05:27:59;103558.75;;;-0.19;100.00
62791;BME280;48830;53.426;10.300;2023-01-25T05:30:52;103561.34;;;-0.02;100.00
62791;BME280;48830;53.426;10.300;2023-01-25T05:33:24;103562.38;;;-0.09;100.00
62791;BME280;48830;53.426;10.300;2023-01-25T05:35:49;103556.78;;;-0.22;100.00
62791;BME280;48830;53.426;10.300;2023-01-25T05:38:15;103546.09;;;-0.19;100.00
62791;BME280;48830;53.426;10.300;2023-01-25T05:40:41;103544.31;;;-0.20;100.00
62791;BME280;48830;53.426;10.300;2023-01-25T05:43:07;103549.25;;;-0.13;100.00
62791;BME280;48830;53.426;10.300;2023-01-25T05:45:32;103541.81;;;-0.12;100.00
62791;BME280;48830;53.426;10.300;2023-01-25T05:47:59;103541.25;;;-0.09;100.00
62791;BME280;48830;53.426;10.300;2023-01-25T05:50:26;103550.28;;;-0.11;100.00
62791;BME280;48830;53.426;10.300;2023-01-25T05:53:07;103545.09;;;-0.13;100.00
62791;BME280;48830;53.426;10.300;2023-01-25T05:55:34;103540.38;;;-0.01;100.00
62791;BME280;48830;53.426;10.300;2023-01-25T05:58:03;103542.75;;;-0.03;100.00
62791;BME280;48830;53.426;10.300;2023-01-25T06:00:28;103538.31;;;-0.05;100.00
62791;BME280;48830;53.426;10.300;2023-01-25T06:02:54;103535.25;;;-0.18;100.00
62791;BME280;48830;53.426;10.300;2023-01-25T06:05:23;103529.22;;;-0.28;100.00
62791;BME280;48830;53.426;10.300;2023-01-25T06:07:48;103516.94;;;-0.24;100.00
62791;BME280;48830;53.426;10.300;2023-01-25T06:10:15;103529.91;;;-0.21;100.00
62791;BME280;48830;53.426;10.300;2023-01-25T06:12:41;103523.66;;;-0.16;100.00
62791;BME280;48830;53.426;10.300;2023-01-25T06:15:08;103527.38;;;-0.13;100.00
62791;BME280;48830;53.426;10.300;2023-01-25T06:17:34;103515.63;;;-0.12;100.00
62791;BME280;48830;53.426;10.300;2023-01-25T06:20:15;103511.94;;;-0.07;100.00
62791;BME280;48830;53.426;10.300;2023-01-25T06:22:59;103514.13;;;-0.19;100.00
62791;BME280;48830;53.426;10.300;2023-01-25T06:25:25;103517.06;;;-0.23;100.00
62791;BME280;48830;53.426;10.300;2023-01-25T06:27:50;103514.41;;;-0.24;100.00
62791;BME280;48830;53.426;10.300;2023-01-25T06:30:18;103520.66;;;-0.21;100.00
62791;BME280;48830;53.426;10.300;2023-01-25T06:32:44;103519.81;;;-0.13;100.00
62791;BME280;48830;53.426;10.300;2023-01-25T06:35:09;103517.41;;;-0.20;100.00
62791;BME280;48830;53.426;10.300;2023-01-25T06:37:35;103515.97;;;-0.09;100.00
62791;BME280;48830;53.426;10.300;2023-01-25T06:40:00;103524.72;;;-0.14;100.00
62791;BME280;48830;53.426;10.300;2023-01-25T06:42:25;103527.25;;;-0.14;100.00
62791;BME280;48830;53.426;10.300;2023-01-25T06:44:51;103531.22;;;-0.16;100.00
62791;BME280;48830;53.426;10.300;2023-01-25T06:47:16;103528.94;;;-0.31;100.00
62791;BME280;48830;53.426;10.300;2023-01-25T06:49:42;103521.56;;;-0.20;100.00
62791;BME280;48830;53.426;10.300;2023-01-25T06:52:07;103536.34;;;-0.08;100.00
62791;BME280;48830;53.426;10.300;2023-01-25T06:54:33;103535.59;;;-0.07;100.00
62791;BME280;48830;53.426;10.300;2023-01-25T06:56:58;103528.28;;;-0.12;100.00
62791;BME280;48830;53.426;10.300;2023-01-25T06:59:24;103536.41;;;-0.23;100.00
62791;BME280;48830;53.426;10.300;2023-01-25T07:01:49;103530.66;;;-0.14;100.00
62791;BME280;48830;53.426;10.300;2023-01-25T07:04:14;103528.69;;;-0.16;100.00
62791;BME280;48830;53.426;10.300;2023-01-25T07:06:41;103531.13;;;-0.09;100.00
62791;BME280;48830;53.426;10.300;2023-01-25T07:09:10;103528.00;;;-0.15;100.00
62791;BME280;48830;53.426;10.300;2023-01-25T07:11:37;103532.31;;;-0.14;100.00
62791;BME280;48830;53.426;10.300;2023-01-25T07:14:02;103508.69;;;-0.06;100.00
62791;BME280;48830;53.426;10.300;2023-01-25T07:16:28;103506.28;;;-0.13;100.00
62791;BME280;48830;53.426;10.300;2023-01-25T07:19:04;103505.66;;;-0.19;100.00
62791;BME280;48830;53.426;10.300;2023-01-25T07:21:29;103510.91;;;-0.09;100.00
62791;BME280;48830;53.426;10.300;2023-01-25T07:23:59;103503.34;;;-0.09;100.00
62791;BME280;48830;53.426;10.300;2023-01-25T07:26:25;103501.41;;;-0.03;100.00
62791;BME280;48830;53.426;10.300;2023-01-25T07:28:52;103501.84;;;-0.07;100.00
62791;BME280;48830;53.426;10.300;2023-01-25T07:31:18;103497.53;;;-0.08;100.00
62791;BME280;48830;53.426;10.300;2023-01-25T07:33:54;103498.28;;;-0.01;100.00
62791;BME280;48830;53.426;10.300;2023-01-25T07:36:20;103497.59;;;0.01;100.00
62791;BME280;48830;53.426;10.300;2023-01-25T07:38:46;103493.09;;;-0.02;100.00
62791;BME280;48830;53.426;10.300;2023-01-25T07:41:11;103485.69;;;0.08;100.00
62791;BME280;48830;53.426;10.300;2023-01-25T07:43:37;103481.81;;;0.03;100.00
62791;BME280;48830;53.426;10.300;2023-01-25T07:46:08;103486.81;;;-0.06;100.00
62791;BME280;48830;53.426;10.300;2023-01-25T07:48:36;103480.63;;;0.08;100.00
62791;BME280;48830;53.426;10.300;2023-01-25T07:51:04;103484.00;;;-0.09;100.00
62791;BME280;48830;53.426;10.300;2023-01-25T07:53:37;103471.91;;;-0.11;100.00
62791;BME280;48830;53.426;10.300;2023-01-25T07:56:03;103475.66;;;-0.08;100.00
62791;BME280;48830;53.426;10.300;2023-01-25T07:58:28;103472.25;;;-0.08;100.00
62791;BME280;48830;53.426;10.300;2023-01-25T08:00:53;103478.25;;;0.01;100.00
62791;BME280;48830;53.426;10.300;2023-01-25T08:03:19;103472.59;;;0.04;100.00
62791;BME280;48830;53.426;10.300;2023-01-25T08:05:47;103470.84;;;0.11;100.00
62791;BME280;48830;53.426;10.300;2023-01-25T08:08:12;103463.97;;;0.02;100.00
62791;BME280;48830;53.426;10.300;2023-01-25T08:10:38;103456.22;;;0.00;100.00
62791;BME280;48830;53.426;10.300;2023-01-25T08:13:03;103455.59;;;-0.06;100.00
62791;BME280;48830;53.426;10.300;2023-01-25T08:15:29;103451.28;;;-0.07;100.00
62791;BME280;48830;53.426;10.300;2023-01-25T08:17:58;103448.78;;;0.02;100.00
62791;BME280;48830;53.426;10.300;2023-01-25T08:20:24;103447.28;;;-0.05;100.00
62791;BME280;48830;53.426;10.300;2023-01-25T08:22:51;103436.91;;;0.01;100.00
62791;BME280;48830;53.426;10.300;2023-01-25T08:25:16;103435.34;;;-0.06;100.00
62791;BME280;48830;53.426;10.300;2023-01-25T08:27:42;103430.63;;;-0.03;100.00
62791;BME280;48830;53.426;10.300;2023-01-25T08:30:07;103430.31;;;-0.06;100.00
62791;BME280;48830;53.426;10.300;2023-01-25T08:32:34;103434.19;;;-0.01;100.00
62791;BME280;48830;53.426;10.300;2023-01-25T08:35:00;103427.22;;;-0.04;100.00
62791;BME280;48830;53.426;10.300;2023-01-25T08:37:25;103429.44;;;0.02;100.00
62791;BME280;48830;53.426;10.300;2023-01-25T08:39:54;103429.69;;;-0.12;100.00
62791;BME280;48830;53.426;10.300;2023-01-25T08:42:21;103428.09;;;-0.03;100.00
62791;BME280;48830;53.426;10.300;2023-01-25T08:44:47;103423.19;;;-0.02;100.00
62791;BME280;48830;53.426;10.300;2023-01-25T08:47:12;103420.97;;;0.02;100.00
62791;BME280;48830;53.426;10.300;2023-01-25T08:49:38;103417.25;;;-0.02;100.00
62791;BME280;48830;53.426;10.300;2023-01-25T08:52:03;103414.41;;;-0.05;100.00
62791;BME280;48830;53.426;10.300;2023-01-25T08:54:29;103412.19;;;-0.02;100.00
62791;BME280;48830;53.426;10.300;2023-01-25T08:56:54;103410.97;;;-0.06;100.00
62791;BME280;48830;53.426;10.300;2023-01-25T08:59:20;103407.72;;;0.04;100.00
62791;BME280;48830;53.426;10.300;2023-01-25T09:01:45;103402.38;;;0.01;100.00
62791;BME280;48830;53.426;10.300;2023-01-25T09:04:11;103405.03;;;-0.06;100.00
62791;BME280;48830;53.426;10.300;2023-01-25T09:06:36;103401.59;;;-0.07;100.00
62791;BME280;48830;53.426;10.300;2023-01-25T09:09:02;103390.47;;;-0.09;100.00
62791;BME280;48830;53.426;10.300;2023-01-25T09:11:29;103387.22;;;0.01;100.00
62791;BME280;48830;53.426;10.300;2023-01-25T09:13:54;103387.94;;;-0.09;100.00
62791;BME280;48830;53.426;10.300;2023-01-25T09:16:22;103386.00;;;-0.03;100.00
62791;BME280;48830;53.426;10.300;2023-01-25T09:18:59;103391.66;;;0.04;100.00
62791;BME280;48830;53.426;10.300;2023-01-25T09:21:26;103387.50;;;0.04;100.00
62791;BME280;48830;53.426;10.300;2023-01-25T09:23:53;103378.28;;;-0.04;100.00
62791;BME280;48830;53.426;10.300;2023-01-25T09:26:18;103374.44;;;0.08;100.00
62791;BME280;48830;53.426;10.300;2023-01-25T09:28:49;103375.03;;;0.14;100.00
62791;BME280;48830;53.426;10.300;2023-01-25T09:31:16;103383.09;;;0.28;100.00
62791;BME280;48830;53.426;10.300;2023-01-25T09:34:00;103375.63;;;0.20;100.00
62791;BME280;48830;53.426;10.300;2023-01-25T09:36:25;103378.31;;;0.13;100.00
62791;BME280;48830;53.426;10.300;2023-01-25T09:38:51;103382.19;;;0.18;100.00
62791;BME280;48830;53.426;10.300;2023-01-25T09:54:08;103362.25;;;0.21;100.00
62791;BME280;48830;53.426;10.300;2023-01-25T09:56:35;103354.81;;;0.23;100.00
62791;BME280;48830;53.426;10.300;2023-01-25T09:59:05;103358.69;;;0.28;100.00
62791;BME280;48830;53.426;10.300;2023-01-25T10:01:56;103353.19;;;0.41;100.00
62791;BME280;48830;53.426;10.300;2023-01-25T10:04:26;103361.97;;;0.44;100.00
62791;BME280;48830;53.426;10.300;2023-01-25T10:06:56;103348.84;;;0.48;100.00
62791;BME280;48830;53.426;10.300;2023-01-25T10:09:38;103344.09;;;0.25;100.00
62791;BME280;48830;53.426;10.300;2023-01-25T10:12:23;103343.34;;;0.18;100.00
62791;BME280;48830;53.426;10.300;2023-01-25T10:14:50;103343.34;;;0.26;100.00
62791;BME280;48830;53.426;10.300;2023-01-25T10:17:42;103340.53;;;0.23;100.00
62791;BME280;48830;53.426;10.300;2023-01-25T10:20:14;103348.69;;;0.21;100.00
62791;BME280;48830;53.426;10.300;2023-01-25T10:25:58;103324.47;;;0.40;100.00
62791;BME280;48830;53.426;10.300;2023-01-25T10:28:38;103320.28;;;0.41;100.00
62791;BME280;48830;53.426;10.300;2023-01-25T10:31:13;103323.13;;;0.44;100.00
62791;BME280;48830;53.426;10.300;2023-01-25T10:33:43;103314.06;;;0.55;100.00
62791;BME280;48830;53.426;10.300;2023-01-25T10:36:16;103304.22;;;0.49;100.00
62791;BME280;48830;53.426;10.300;2023-01-25T10:38:44;103301.38;;;0.46;100.00
62791;BME280;48830;53.426;10.300;2023-01-25T10:41:23;103293.34;;;0.50;100.00
62791;BME280;48830;53.426;10.300;2023-01-25T10:43:53;103294.69;;;0.55;100.00
62791;BME280;48830;53.426;10.300;2023-01-25T10:47:26;103296.16;;;0.53;100.00
62791;BME280;48830;53.426;10.300;2023-01-25T10:49:57;103287.53;;;0.51;100.00
62791;BME280;48830;53.426;10.300;2023-01-25T10:52:32;103285.31;;;0.37;100.00
62791;BME280;48830;53.426;10.300;2023-01-25T10:55:18;103281.75;;;0.35;100.00
62791;BME280;48830;53.426;10.300;2023-01-25T10:57:47;103267.47;;;0.35;100.00
62791;BME280;48830;53.426;10.300;2023-01-25T11:02:48;103262.72;;;0.38;100.00
62791;BME280;48830;53.426;10.300;2023-01-25T11:07:42;103262.84;;;0.40;100.00
62791;BME280;48830;53.426;10.300;2023-01-25T11:15:40;103256.91;;;0.31;100.00
62791;BME280;48830;53.426;10.300;2023-01-25T11:18:12;103243.22;;;0.29;100.00
62791;BME280;48830;53.426;10.300;2023-01-25T11:20:38;103238.16;;;0.29;100.00
62791;BME280;48830;53.426;10.300;2023-01-25T11:23:21;103236.06;;;0.42;100.00
62791;BME280;48830;53.426;10.300;2023-01-25T11:25:47;103229.22;;;0.41;100.00
62791;BME280;48830;53.426;10.300;2023-01-25T11:28:23;103219.84;;;0.31;100.00
62791;BME280;48830;53.426;10.300;2023-01-25T11:30:50;103209.91;;;0.15;100.00
62791;BME280;48830;53.426;10.300;2023-01-25T11:33:18;103204.97;;;0.25;100.00
62791;BME280;48830;53.426;10.300;2023-01-25T11:38:46;103194.09;;;0.44;100.00
62791;BME280;48830;53.426;10.300;2023-01-25T11:41:27;103186.91;;;0.57;100.00
62791;BME280;48830;53.426;10.300;2023-01-25T11:47:01;103171.59;;;0.56;100.00
62791;BME280;48830;53.426;10.300;2023-01-25T11:50:01;103156.84;;;0.60;100.00
62791;BME280;48830;53.426;10.300;2023-01-25T12:04:27;103130.22;;;0.46;100.00
62791;BME280;48830;53.426;10.300;2023-01-25T12:07:08;103127.34;;;0.61;100.00
62791;BME280;48830;53.426;10.300;2023-01-25T12:15:41;103105.13;;;0.67;100.00
62791;BME280;48830;53.426;10.300;2023-01-25T12:26:25;103081.94;;;0.62;100.00
62791;BME280;48830;53.426;10.300;2023-01-25T12:32:27;103074.13;;;0.42;100.00
62791;BME280;48830;53.426;10.300;2023-01-25T12:35:27;103065.22;;;0.37;100.00
62791;BME280;48830;53.426;10.300;2023-01-25T12:37:59;103056.28;;;0.40;100.00
62791;BME280;48830;53.426;10.300;2023-01-25T12:40:52;103042.88;;;0.41;100.00
62791;BME280;48830;53.426;10.300;2023-01-25T12:43:47;103034.16;;;0.38;100.00
62791;BME280;48830;53.426;10.300;2023-01-25T12:46:37;103034.31;;;0.58;100.00
62791;BME280;48830;53.426;10.300;2023-01-25T12:49:10;103025.31;;;0.43;100.00
62791;BME280;48830;53.426;10.300;2023-01-25T12:51:41;103022.22;;;0.37;100.00
62791;BME280;48830;53.426;10.300;2023-01-25T12:54:22;103022.94;;;0.44;100.00
62791;BME280;48830;53.426;10.300;2023-01-25T12:56:57;103010.72;;;0.49;100.00
62791;BME280;48830;53.426;10.300;2023-01-25T12:59:36;103005.59;;;0.58;100.00
62791;BME280;48830;53.426;10.300;2023-01-25T13:02:16;102998.72;;;0.65;100.00
62791;BME280;48830;53.426;10.300;2023-01-25T13:04:58;103004.69;;;0.57;100.00
62791;BME280;48830;53.426;10.300;2023-01-25T13:07:42;103001.53;;;0.41;100.00
62791;BME280;48830;53.426;10.300;2023-01-25T13:10:19;102994.47;;;0.28;100.00
62791;BME280;48830;53.426;10.300;2023-01-25T13:12:54;102988.50;;;0.28;100.00
62791;BME280;48830;53.426;10.300;2023-01-25T13:17:59;102997.56;;;0.25;100.00
62791;BME280;48830;53.426;10.300;2023-01-25T13:28:47;102995.59;;;0.32;100.00
62791;BME280;48830;53.426;10.300;2023-01-25T13:34:11;102980.69;;;0.43;100.00
62791;BME280;48830;53.426;10.300;2023-01-25T13:42:18;102966.84;;;0.40;100.00
62791;BME280;48830;53.426;10.300;2023-01-25T13:44:47;102963.56;;;0.41;100.00
62791;BME280;48830;53.426;10.300;2023-01-25T13:47:17;102959.53;;;0.43;100.00
62791;BME280;48830;53.426;10.300;2023-01-25T13:49:47;102965.69;;;0.36;100.00
62791;BME280;48830;53.426;10.300;2023-01-25T13:52:16;102963.78;;;0.34;100.00
62791;BME280;48830;53.426;10.300;2023-01-25T13:54:47;102952.47;;;0.30;100.00
62791;BME280;48830;53.426;10.300;2023-01-25T13:57:18;102958.41;;;0.31;100.00
62791;BME280;48830;53.426;10.300;2023-01-25T13:59:44;102960.53;;;0.26;100.00
62791;BME280;48830;53.426;10.300;2023-01-25T14:02:20;102964.13;;;0.19;100.00
62791;BME280;48830;53.426;10.300;2023-01-25T14:04:49;102958.06;;;0.17;100.00
62791;BME280;48830;53.426;10.300;2023-01-25T14:07:17;102955.53;;;0.17;100.00
62791;BME280;48830;53.426;10.300;2023-01-25T14:09:46;102947.31;;;0.20;100.00
62791;BME280;48830;53.426;10.300;2023-01-25T14:12:36;102951.69;;;0.12;100.00
62791;BME280;48830;53.426;10.300;2023-01-25T14:15:26;102947.53;;;0.13;100.00
62791;BME280;48830;53.426;10.300;2023-01-25T14:20:35;102936.41;;;0.30;100.00
62791;BME280;48830;53.426;10.300;2023-01-25T14:23:01;102929.28;;;0.25;100.00
62791;BME280;48830;53.426;10.300;2023-01-25T14:25:26;102934.97;;;0.23;100.00
62791;BME280;48830;53.426;10.300;2023-01-25T14:27:53;102935.31;;;0.17;100.00